createdAt,value
2018-11-14T00:00:24.695Z,9.56
2018-11-14T00:01:05.383Z,9.64
2018-11-14T00:01:45.945Z,9.61
2018-11-14T00:02:26.549Z,9.61
2018-11-14T00:03:07.082Z,9.66
2018-11-14T00:03:47.633Z,9.66
2018-11-14T00:04:28.195Z,9.62
2018-11-14T00:05:08.765Z,9.62
2018-11-14T00:05:49.374Z,9.62
2018-11-14T00:06:29.940Z,9.69
2018-11-14T00:07:10.504Z,9.65
2018-11-14T00:07:51.089Z,9.62
2018-11-14T00:08:31.644Z,9.65
2018-11-14T00:09:12.224Z,9.62
2018-11-14T00:09:52.777Z,9.66
2018-11-14T00:10:33.356Z,9.69
2018-11-14T00:11:13.916Z,9.66
2018-11-14T00:11:54.484Z,9.72
2018-11-14T00:12:35.025Z,9.73
2018-11-14T00:13:15.580Z,9.73
2018-11-14T00:13:56.154Z,9.74
2018-11-14T00:14:36.732Z,9.69
2018-11-14T00:15:17.288Z,9.79
2018-11-14T00:15:57.843Z,9.73
2018-11-14T00:16:38.395Z,9.74
2018-11-14T00:17:18.954Z,9.73
2018-11-14T00:17:59.507Z,9.74
2018-11-14T00:18:40.058Z,9.8
2018-11-14T00:19:20.663Z,9.73
2018-11-14T00:20:01.186Z,9.74
2018-11-14T00:20:41.756Z,9.77
2018-11-14T00:21:22.311Z,9.65
2018-11-14T00:22:02.878Z,9.77
2018-11-14T00:22:43.444Z,9.74
2018-11-14T00:23:24.005Z,9.69
2018-11-14T00:24:04.568Z,9.64
2018-11-14T00:24:45.273Z,9.65
2018-11-14T00:25:25.700Z,9.66
2018-11-14T00:26:06.260Z,9.66
2018-11-14T00:26:47.302Z,9.66
2018-11-14T00:27:27.725Z,9.62
2018-11-14T00:28:08.277Z,9.61
2018-11-14T00:28:48.908Z,9.62
2018-11-14T00:29:29.888Z,9.66
2018-11-14T00:30:10.033Z,9.76
2018-11-14T00:30:50.603Z,9.68
2018-11-14T00:31:31.185Z,9.55
2018-11-14T00:32:11.729Z,9.72
2018-11-14T00:32:52.284Z,9.68
2018-11-14T00:33:32.826Z,9.66
2018-11-14T00:34:13.407Z,9.68
2018-11-14T00:34:54.057Z,9.77
2018-11-14T00:35:34.517Z,9.76
2018-11-14T00:36:15.060Z,9.64
2018-11-14T00:36:55.798Z,9.77
2018-11-14T00:37:36.173Z,9.69
2018-11-14T00:38:16.715Z,9.68
2018-11-14T00:38:57.280Z,9.73
2018-11-14T00:39:37.857Z,9.65
2018-11-14T00:40:18.408Z,9.65
2018-11-14T00:40:58.967Z,9.66
2018-11-14T00:41:39.528Z,9.65
2018-11-14T00:42:20.083Z,9.59
2018-11-14T00:43:00.632Z,9.65
2018-11-14T00:43:41.185Z,9.66
2018-11-14T00:44:21.724Z,9.58
2018-11-14T00:45:02.291Z,9.64
2018-11-14T00:45:42.851Z,9.59
2018-11-14T00:46:23.422Z,9.58
2018-11-14T00:47:03.980Z,9.62
2018-11-14T00:47:44.533Z,9.54
2018-11-14T00:48:25.077Z,9.61
2018-11-14T00:49:05.655Z,9.62
2018-11-14T00:49:46.212Z,9.59
2018-11-14T00:50:26.795Z,9.59
2018-11-14T00:51:07.326Z,9.62
2018-11-14T00:51:47.906Z,9.54
2018-11-14T00:52:28.473Z,9.54
2018-11-14T00:53:09.031Z,9.62
2018-11-14T00:53:49.603Z,9.51
2018-11-14T00:54:30.173Z,9.62
2018-11-14T00:55:10.737Z,9.65
2018-11-14T00:55:51.321Z,9.65
2018-11-14T00:56:31.865Z,9.65
2018-11-14T00:57:12.428Z,9.65
2018-11-14T00:57:52.984Z,9.62
2018-11-14T00:58:33.579Z,9.65
2018-11-14T00:59:14.138Z,9.68
2018-11-14T00:59:54.742Z,9.61
2018-11-14T01:00:35.255Z,9.62
2018-11-14T01:01:15.816Z,9.58
2018-11-14T01:01:56.383Z,9.61
2018-11-14T01:02:37.430Z,9.68
2018-11-14T01:03:18.040Z,9.59
2018-11-14T01:03:58.606Z,9.62
2018-11-14T01:04:39.183Z,9.61
2018-11-14T01:05:19.781Z,9.68
2018-11-14T01:06:00.322Z,9.65
2018-11-14T01:06:40.896Z,9.61
2018-11-14T01:07:21.442Z,9.76
2018-11-14T01:08:02.037Z,9.66
2018-11-14T01:08:42.591Z,9.69
2018-11-14T01:09:23.143Z,9.64
2018-11-14T01:10:03.702Z,9.68
2018-11-14T01:10:44.266Z,9.68
2018-11-14T01:11:24.815Z,9.74
2018-11-14T01:12:05.377Z,9.65
2018-11-14T01:12:45.927Z,9.68
2018-11-14T01:13:26.597Z,9.56
2018-11-14T01:14:07.131Z,9.59
2018-11-14T01:14:47.696Z,9.68
2018-11-14T01:15:28.286Z,9.69
2018-11-14T01:16:08.849Z,9.69
2018-11-14T01:16:49.410Z,9.66
2018-11-14T01:17:29.976Z,9.69
2018-11-14T01:18:10.523Z,9.61
2018-11-14T01:18:51.076Z,9.68
2018-11-14T01:19:31.660Z,9.66
2018-11-14T01:20:12.229Z,9.68
2018-11-14T01:20:52.777Z,9.69
2018-11-14T01:21:33.381Z,9.68
2018-11-14T01:22:13.894Z,9.72
2018-11-14T01:22:54.441Z,9.68
2018-11-14T01:23:35.013Z,9.65
2018-11-14T01:24:15.563Z,9.66
2018-11-14T01:24:56.144Z,9.74
2018-11-14T01:25:36.696Z,9.72
2018-11-14T01:26:17.263Z,9.73
2018-11-14T01:26:57.847Z,9.65
2018-11-14T01:27:38.377Z,9.74
2018-11-14T01:28:18.933Z,9.66
2018-11-14T01:28:59.499Z,9.77
2018-11-14T01:29:40.136Z,9.73
2018-11-14T01:30:20.689Z,9.76
2018-11-14T01:31:01.245Z,9.69
2018-11-14T01:31:41.805Z,9.72
2018-11-14T01:32:22.393Z,9.72
2018-11-14T01:33:02.950Z,9.77
2018-11-14T01:33:43.496Z,9.72
2018-11-14T01:34:24.052Z,9.66
2018-11-14T01:35:04.618Z,9.65
2018-11-14T01:35:45.281Z,9.62
2018-11-14T01:36:25.836Z,9.61
2018-11-14T01:37:06.394Z,9.65
2018-11-14T01:37:46.968Z,9.66
2018-11-14T01:38:27.537Z,9.68
2018-11-14T01:39:08.105Z,9.62
2018-11-14T01:39:48.654Z,9.64
2018-11-14T01:40:29.205Z,9.65
2018-11-14T01:41:09.848Z,9.58
2018-11-14T01:41:50.320Z,9.51
2018-11-14T01:42:30.871Z,9.58
2018-11-14T01:43:11.432Z,9.46
2018-11-14T01:43:51.996Z,9.55
2018-11-14T01:44:32.561Z,9.5
2018-11-14T01:45:13.110Z,9.48
2018-11-14T01:45:53.665Z,9.55
2018-11-14T01:46:34.232Z,9.54
2018-11-14T01:47:14.783Z,9.48
2018-11-14T01:47:55.384Z,9.48
2018-11-14T01:48:35.954Z,9.43
2018-11-14T01:49:16.509Z,9.51
2018-11-14T01:49:57.055Z,9.5
2018-11-14T01:50:37.618Z,9.5
2018-11-14T01:51:18.194Z,9.5
2018-11-14T01:51:58.744Z,9.5
2018-11-14T01:52:39.329Z,9.46
2018-11-14T01:53:19.895Z,9.44
2018-11-14T01:54:00.462Z,9.51
2018-11-14T01:54:41.002Z,9.55
2018-11-14T01:55:21.548Z,9.5
2018-11-14T01:56:02.098Z,9.54
2018-11-14T01:56:42.657Z,9.55
2018-11-14T01:57:23.205Z,9.48
2018-11-14T01:58:03.794Z,9.5
2018-11-14T01:58:44.377Z,9.55
2018-11-14T01:59:24.947Z,9.47
2018-11-14T02:00:05.516Z,9.48
2018-11-14T02:00:46.068Z,9.48
2018-11-14T02:01:26.617Z,9.47
2018-11-14T02:02:07.161Z,9.47
2018-11-14T02:02:47.743Z,9.44
2018-11-14T02:03:28.295Z,9.5
2018-11-14T02:04:08.863Z,9.54
2018-11-14T02:04:49.435Z,9.56
2018-11-14T02:05:29.989Z,9.47
2018-11-14T02:06:10.546Z,9.5
2018-11-14T02:06:51.108Z,9.44
2018-11-14T02:07:31.661Z,9.47
2018-11-14T02:08:12.252Z,9.44
2018-11-14T02:08:52.808Z,9.41
2018-11-14T02:09:33.356Z,9.48
2018-11-14T02:10:13.926Z,9.48
2018-11-14T02:10:54.480Z,9.41
2018-11-14T02:11:35.048Z,9.47
2018-11-14T02:12:15.607Z,9.47
2018-11-14T02:12:56.162Z,9.44
2018-11-14T02:13:36.736Z,9.47
2018-11-14T02:14:17.281Z,9.43
2018-11-14T02:14:57.886Z,9.51
2018-11-14T02:15:38.423Z,9.46
2018-11-14T02:16:18.980Z,9.36
2018-11-14T02:16:59.542Z,9.39
2018-11-14T02:17:40.101Z,9.48
2018-11-14T02:18:20.675Z,9.37
2018-11-14T02:19:01.206Z,9.5
2018-11-14T02:19:41.764Z,9.43
2018-11-14T02:20:22.315Z,9.4
2018-11-14T02:21:02.866Z,9.41
2018-11-14T02:21:43.425Z,9.41
2018-11-14T02:22:23.999Z,9.39
2018-11-14T02:23:04.549Z,9.32
2018-11-14T02:23:45.094Z,9.36
2018-11-14T02:24:25.637Z,9.37
2018-11-14T02:25:06.201Z,9.36
2018-11-14T02:25:46.760Z,9.4
2018-11-14T02:26:27.311Z,9.4
2018-11-14T02:27:07.861Z,9.36
2018-11-14T02:27:48.421Z,9.39
2018-11-14T02:28:29.001Z,9.39
2018-11-14T02:29:09.551Z,9.36
2018-11-14T02:29:50.110Z,9.39
2018-11-14T02:30:30.662Z,9.34
2018-11-14T02:31:11.223Z,9.31
2018-11-14T02:31:51.770Z,9.32
2018-11-14T02:32:32.332Z,9.37
2018-11-14T02:33:12.890Z,9.31
2018-11-14T02:33:53.458Z,9.28
2018-11-14T02:34:34.062Z,9.29
2018-11-14T02:35:14.620Z,9.23
2018-11-14T02:35:55.189Z,9.26
2018-11-14T02:36:35.776Z,9.26
2018-11-14T02:37:16.334Z,9.22
2018-11-14T02:37:56.899Z,9.23
2018-11-14T02:38:37.465Z,9.22
2018-11-14T02:39:18.033Z,9.11
2018-11-14T02:39:58.610Z,9.21
2018-11-14T02:40:39.182Z,9.19
2018-11-14T02:41:19.850Z,9.22
2018-11-14T02:42:00.409Z,9.19
2018-11-14T02:42:41.020Z,9.18
2018-11-14T02:43:21.567Z,9.19
2018-11-14T02:44:02.137Z,9.23
2018-11-14T02:44:42.675Z,9.22
2018-11-14T02:45:23.242Z,9.14
2018-11-14T02:46:03.872Z,9.23
2018-11-14T02:46:44.393Z,9.23
2018-11-14T02:47:24.968Z,9.16
2018-11-14T02:48:05.517Z,9.1
2018-11-14T02:48:46.054Z,9.08
2018-11-14T02:49:26.621Z,9.08
2018-11-14T02:50:07.187Z,9.14
2018-11-14T02:50:47.734Z,9.13
2018-11-14T02:51:28.289Z,9.14
2018-11-14T02:52:08.848Z,9.14
2018-11-14T02:52:49.399Z,9.14
2018-11-14T02:53:29.985Z,9.1
2018-11-14T02:54:10.536Z,9.13
2018-11-14T02:54:51.149Z,9.14
2018-11-14T02:55:31.732Z,8.99
2018-11-14T02:56:12.315Z,9.02
2018-11-14T02:56:52.888Z,9.02
2018-11-14T02:57:33.441Z,9.11
2018-11-14T02:58:13.995Z,9.04
2018-11-14T02:58:54.616Z,9
2018-11-14T02:59:35.172Z,9.04
2018-11-14T03:00:15.770Z,9.04
2018-11-14T03:00:56.308Z,9.11
2018-11-14T03:01:36.894Z,8.99
2018-11-14T03:02:17.403Z,8.97
2018-11-14T03:02:57.967Z,8.97
2018-11-14T03:03:38.548Z,8.95
2018-11-14T03:04:19.104Z,8.88
2018-11-14T03:04:59.669Z,8.89
2018-11-14T03:05:40.220Z,8.92
2018-11-14T03:06:20.783Z,8.92
2018-11-14T03:07:01.396Z,8.87
2018-11-14T03:07:41.961Z,8.89
2018-11-14T03:08:22.515Z,8.88
2018-11-14T03:09:03.073Z,8.94
2018-11-14T03:09:43.631Z,8.92
2018-11-14T03:10:24.185Z,8.89
2018-11-14T03:11:04.780Z,8.95
2018-11-14T03:11:45.347Z,8.84
2018-11-14T03:12:25.976Z,8.85
2018-11-14T03:13:06.467Z,8.88
2018-11-14T03:13:47.079Z,8.78
2018-11-14T03:14:27.634Z,8.85
2018-11-14T03:15:08.195Z,8.81
2018-11-14T03:15:48.762Z,8.76
2018-11-14T03:16:29.329Z,8.78
2018-11-14T03:17:09.904Z,8.79
2018-11-14T03:17:50.491Z,8.78
2018-11-14T03:18:31.055Z,8.71
2018-11-14T03:19:11.617Z,8.73
2018-11-14T03:19:52.205Z,8.71
2018-11-14T03:20:32.745Z,8.78
2018-11-14T03:21:13.314Z,8.74
2018-11-14T03:21:53.870Z,8.74
2018-11-14T03:22:34.452Z,8.73
2018-11-14T03:23:15.006Z,8.7
2018-11-14T03:23:55.561Z,8.64
2018-11-14T03:24:36.127Z,8.63
2018-11-14T03:25:16.677Z,8.64
2018-11-14T03:25:57.357Z,8.67
2018-11-14T03:26:37.789Z,8.7
2018-11-14T03:27:18.347Z,8.78
2018-11-14T03:27:58.909Z,8.71
2018-11-14T03:28:39.467Z,8.78
2018-11-14T03:29:20.017Z,8.76
2018-11-14T03:30:00.563Z,8.73
2018-11-14T03:30:41.121Z,8.71
2018-11-14T03:31:21.696Z,8.71
2018-11-14T03:32:02.308Z,8.6
2018-11-14T03:32:42.924Z,8.69
2018-11-14T03:33:23.479Z,8.63
2018-11-14T03:34:04.048Z,8.66
2018-11-14T03:34:44.651Z,8.64
2018-11-14T03:35:25.216Z,8.67
2018-11-14T03:36:05.758Z,8.67
2018-11-14T03:36:46.320Z,8.63
2018-11-14T03:37:26.876Z,8.66
2018-11-14T03:38:07.442Z,8.74
2018-11-14T03:38:47.996Z,8.71
2018-11-14T03:39:28.561Z,8.63
2018-11-14T03:40:09.129Z,8.61
2018-11-14T03:40:49.684Z,8.66
2018-11-14T03:41:30.273Z,8.64
2018-11-14T03:42:10.824Z,8.69
2018-11-14T03:42:51.376Z,8.7
2018-11-14T03:43:31.960Z,8.66
2018-11-14T03:44:12.506Z,8.67
2018-11-14T03:44:53.056Z,8.73
2018-11-14T03:45:33.603Z,8.7
2018-11-14T03:46:14.171Z,8.69
2018-11-14T03:46:54.727Z,8.73
2018-11-14T03:47:35.283Z,8.6
2018-11-14T03:48:15.854Z,8.66
2018-11-14T03:48:56.411Z,8.7
2018-11-14T03:49:36.978Z,8.61
2018-11-14T03:50:17.532Z,8.56
2018-11-14T03:50:58.114Z,8.61
2018-11-14T03:51:38.675Z,8.61
2018-11-14T03:52:19.227Z,8.63
2018-11-14T03:52:59.781Z,8.7
2018-11-14T03:53:40.318Z,8.64
2018-11-14T03:54:20.872Z,8.66
2018-11-14T03:55:01.415Z,8.7
2018-11-14T03:55:41.967Z,8.66
2018-11-14T03:56:22.528Z,8.71
2018-11-14T03:57:03.080Z,8.74
2018-11-14T03:57:43.637Z,8.73
2018-11-14T03:58:24.271Z,8.79
2018-11-14T03:59:04.769Z,8.79
2018-11-14T03:59:45.334Z,8.76
2018-11-14T04:00:25.883Z,8.76
2018-11-14T04:01:06.433Z,8.74
2018-11-14T04:01:46.990Z,8.71
2018-11-14T04:02:27.564Z,8.81
2018-11-14T04:03:08.130Z,8.79
2018-11-14T04:03:48.681Z,8.85
2018-11-14T04:04:29.241Z,8.84
2018-11-14T04:05:09.806Z,8.87
2018-11-14T04:05:50.385Z,8.85
2018-11-14T04:06:30.954Z,8.85
2018-11-14T04:07:11.550Z,8.85
2018-11-14T04:07:52.099Z,8.87
2018-11-14T04:08:32.663Z,8.88
2018-11-14T04:09:13.263Z,8.88
2018-11-14T04:09:53.804Z,8.91
2018-11-14T04:10:34.371Z,8.95
2018-11-14T04:11:14.927Z,8.87
2018-11-14T04:11:55.522Z,8.87
2018-11-14T04:12:36.070Z,8.89
2018-11-14T04:13:16.624Z,8.89
2018-11-14T04:13:57.189Z,8.94
2018-11-14T04:14:37.785Z,8.91
2018-11-14T04:15:18.328Z,8.94
2018-11-14T04:15:58.913Z,8.97
2018-11-14T04:16:39.465Z,8.95
2018-11-14T04:17:20.033Z,8.92
2018-11-14T04:18:00.580Z,8.89
2018-11-14T04:18:41.150Z,8.88
2018-11-14T04:19:21.707Z,8.95
2018-11-14T04:20:02.282Z,8.99
2018-11-14T04:20:42.842Z,8.91
2018-11-14T04:21:23.433Z,8.94
2018-11-14T04:22:04.031Z,8.89
2018-11-14T04:22:44.584Z,8.99
2018-11-14T04:23:25.134Z,8.92
2018-11-14T04:24:05.711Z,8.89
2018-11-14T04:24:46.300Z,8.88
2018-11-14T04:25:26.937Z,8.89
2018-11-14T04:26:07.465Z,8.89
2018-11-14T04:26:48.056Z,8.88
2018-11-14T04:27:28.616Z,8.87
2018-11-14T04:28:09.175Z,8.88
2018-11-14T04:28:49.730Z,8.89
2018-11-14T04:29:30.280Z,8.84
2018-11-14T04:30:10.848Z,8.74
2018-11-14T04:30:51.397Z,8.84
2018-11-14T04:31:31.958Z,8.71
2018-11-14T04:32:12.506Z,8.82
2018-11-14T04:32:53.079Z,8.76
2018-11-14T04:33:33.634Z,8.79
2018-11-14T04:34:14.191Z,8.79
2018-11-14T04:34:54.756Z,8.76
2018-11-14T04:35:35.319Z,8.79
2018-11-14T04:36:15.962Z,8.76
2018-11-14T04:36:56.522Z,8.79
2018-11-14T04:37:37.087Z,8.79
2018-11-14T04:38:17.646Z,8.76
2018-11-14T04:38:58.208Z,8.82
2018-11-14T04:39:38.768Z,8.74
2018-11-14T04:40:19.334Z,8.79
2018-11-14T04:40:59.889Z,8.76
2018-11-14T04:41:40.469Z,8.71
2018-11-14T04:42:21.029Z,8.81
2018-11-14T04:43:01.600Z,8.82
2018-11-14T04:43:42.194Z,8.82
2018-11-14T04:44:22.749Z,8.76
2018-11-14T04:45:03.302Z,8.81
2018-11-14T04:45:43.860Z,8.81
2018-11-14T04:46:24.413Z,8.84
2018-11-14T04:47:04.971Z,8.82
2018-11-14T04:47:45.611Z,8.73
2018-11-14T04:48:26.098Z,8.81
2018-11-14T04:49:06.659Z,8.76
2018-11-14T04:49:47.209Z,8.81
2018-11-14T04:50:27.760Z,8.79
2018-11-14T04:51:08.326Z,8.73
2018-11-14T04:51:48.883Z,8.76
2018-11-14T04:52:29.448Z,8.78
2018-11-14T04:53:10.003Z,8.78
2018-11-14T04:53:50.579Z,8.78
2018-11-14T04:54:31.138Z,8.78
2018-11-14T04:55:11.716Z,8.74
2018-11-14T04:55:52.292Z,8.73
2018-11-14T04:56:32.845Z,8.78
2018-11-14T04:57:13.426Z,8.74
2018-11-14T04:57:53.988Z,8.71
2018-11-14T04:58:34.538Z,8.64
2018-11-14T04:59:15.087Z,8.69
2018-11-14T04:59:55.695Z,8.71
2018-11-14T05:00:36.277Z,8.71
2018-11-14T05:01:16.843Z,8.69
2018-11-14T05:01:57.399Z,8.67
2018-11-14T05:02:38.048Z,8.61
2018-11-14T05:03:18.565Z,8.66
2018-11-14T05:03:59.100Z,8.66
2018-11-14T05:04:39.665Z,8.64
2018-11-14T05:05:20.216Z,8.63
2018-11-14T05:06:00.768Z,8.66
2018-11-14T05:06:41.317Z,8.71
2018-11-14T05:07:21.868Z,8.63
2018-11-14T05:08:02.428Z,8.67
2018-11-14T05:08:42.984Z,8.66
2018-11-14T05:09:23.543Z,8.67
2018-11-14T05:10:04.184Z,8.67
2018-11-14T05:10:44.723Z,8.61
2018-11-14T05:11:25.289Z,8.74
2018-11-14T05:12:05.886Z,8.64
2018-11-14T05:12:46.520Z,8.69
2018-11-14T05:13:27.024Z,8.66
2018-11-14T05:14:07.606Z,8.71
2018-11-14T05:14:48.168Z,8.73
2018-11-14T05:15:28.724Z,8.66
2018-11-14T05:16:09.304Z,8.69
2018-11-14T05:16:49.891Z,8.67
2018-11-14T05:17:30.436Z,8.67
2018-11-14T05:18:10.994Z,8.6
2018-11-14T05:18:51.548Z,8.58
2018-11-14T05:19:32.093Z,8.63
2018-11-14T05:20:12.648Z,8.63
2018-11-14T05:20:53.205Z,8.61
2018-11-14T05:21:33.784Z,8.58
2018-11-14T05:22:14.364Z,8.61
2018-11-14T05:22:54.935Z,8.53
2018-11-14T05:23:35.480Z,8.48
2018-11-14T05:24:16.032Z,8.51
2018-11-14T05:24:56.595Z,8.49
2018-11-14T05:25:37.163Z,8.51
2018-11-14T05:26:17.738Z,8.58
2018-11-14T05:26:58.315Z,8.48
2018-11-14T05:27:38.903Z,8.51
2018-11-14T05:28:19.497Z,8.51
2018-11-14T05:29:00.055Z,8.52
2018-11-14T05:29:40.619Z,8.45
2018-11-14T05:30:21.179Z,8.38
2018-11-14T05:31:01.763Z,8.42
2018-11-14T05:31:42.360Z,8.36
2018-11-14T05:32:22.896Z,8.37
2018-11-14T05:33:03.460Z,8.28
2018-11-14T05:33:44.010Z,8.42
2018-11-14T05:34:24.602Z,8.27
2018-11-14T05:35:05.155Z,8.37
2018-11-14T05:35:45.697Z,8.28
2018-11-14T05:36:26.296Z,8.34
2018-11-14T05:37:06.835Z,8.27
2018-11-14T05:37:47.400Z,8.34
2018-11-14T05:38:27.956Z,8.3
2018-11-14T05:39:08.509Z,8.27
2018-11-14T05:39:49.287Z,8.27
2018-11-14T05:40:29.666Z,8.34
2018-11-14T05:41:10.222Z,8.3
2018-11-14T05:41:50.778Z,8.3
2018-11-14T05:42:31.333Z,8.3
2018-11-14T05:43:11.904Z,8.3
2018-11-14T05:43:52.520Z,8.27
2018-11-14T05:44:33.104Z,8.33
2018-11-14T05:45:13.800Z,8.31
2018-11-14T05:45:54.296Z,8.34
2018-11-14T05:46:34.862Z,8.28
2018-11-14T05:47:15.407Z,8.24
2018-11-14T05:47:56.024Z,8.3
2018-11-14T05:48:36.573Z,8.26
2018-11-14T05:49:17.196Z,8.26
2018-11-14T05:49:57.749Z,8.23
2018-11-14T05:50:38.314Z,8.19
2018-11-14T05:51:18.874Z,8.24
2018-11-14T05:51:59.438Z,8.19
2018-11-14T05:52:39.986Z,8.15
2018-11-14T05:53:20.540Z,8.23
2018-11-14T05:54:01.085Z,8.2
2018-11-14T05:54:41.719Z,8.13
2018-11-14T05:55:22.252Z,8.12
2018-11-14T05:56:02.835Z,8.16
2018-11-14T05:56:43.410Z,8.16
2018-11-14T05:57:23.973Z,8.15
2018-11-14T05:58:04.557Z,8.12
2018-11-14T05:58:45.116Z,8.13
2018-11-14T05:59:25.699Z,8.15
2018-11-14T06:00:06.252Z,8.24
2018-11-14T06:00:46.831Z,8.24
2018-11-14T06:01:27.389Z,8.24
2018-11-14T06:02:07.995Z,8.27
2018-11-14T06:02:48.557Z,8.24
2018-11-14T06:03:29.112Z,8.23
2018-11-14T06:04:09.692Z,8.23
2018-11-14T06:04:50.290Z,8.24
2018-11-14T06:05:30.841Z,8.3
2018-11-14T06:06:11.462Z,8.3
2018-11-14T06:06:52.061Z,8.24
2018-11-14T06:07:32.660Z,8.28
2018-11-14T06:08:13.225Z,8.31
2018-11-14T06:08:53.811Z,8.27
2018-11-14T06:09:34.364Z,8.26
2018-11-14T06:10:14.913Z,8.27
2018-11-14T06:10:55.473Z,8.27
2018-11-14T06:11:36.048Z,8.23
2018-11-14T06:12:16.598Z,8.28
2018-11-14T06:12:57.177Z,8.19
2018-11-14T06:13:37.766Z,8.27
2018-11-14T06:14:18.327Z,8.26
2018-11-14T06:14:58.877Z,8.26
2018-11-14T06:15:39.440Z,8.19
2018-11-14T06:16:20.036Z,8.23
2018-11-14T06:17:00.576Z,8.2
2018-11-14T06:17:41.201Z,8.18
2018-11-14T06:18:21.785Z,8.16
2018-11-14T06:19:02.339Z,8.28
2018-11-14T06:19:42.904Z,8.26
2018-11-14T06:20:23.468Z,8.24
2018-11-14T06:21:04.027Z,8.19
2018-11-14T06:21:44.629Z,8.24
2018-11-14T06:22:25.139Z,8.24
2018-11-14T06:23:05.700Z,8.27
2018-11-14T06:23:46.327Z,8.27
2018-11-14T06:24:26.835Z,8.19
2018-11-14T06:25:07.402Z,8.28
2018-11-14T06:25:47.972Z,8.27
2018-11-14T06:26:28.522Z,8.2
2018-11-14T06:27:09.072Z,8.26
2018-11-14T06:27:49.981Z,8.27
2018-11-14T06:28:30.530Z,8.24
2018-11-14T06:29:11.116Z,8.26
2018-11-14T06:29:51.916Z,8.26
2018-11-14T06:30:32.649Z,8.26
2018-11-14T06:31:13.198Z,8.2
2018-11-14T06:31:53.771Z,8.18
2018-11-14T06:32:34.790Z,8.24
2018-11-14T06:33:15.665Z,8.28
2018-11-14T06:33:57.530Z,8.3
2018-11-14T06:34:38.080Z,8.3
2018-11-14T06:35:18.695Z,8.34
2018-11-14T06:35:59.212Z,8.26
2018-11-14T06:36:39.792Z,8.33
2018-11-14T06:37:20.819Z,8.36
2018-11-14T06:38:03.446Z,8.3
2018-11-14T06:38:44.000Z,8.33
2018-11-14T06:39:24.590Z,8.31
2018-11-14T06:40:05.170Z,8.31
2018-11-14T06:40:45.744Z,8.36
2018-11-14T06:41:26.312Z,8.38
2018-11-14T06:42:06.892Z,8.33
2018-11-14T06:42:47.620Z,8.36
2018-11-14T06:43:28.178Z,8.37
2018-11-14T06:44:08.735Z,8.38
2018-11-14T06:44:49.293Z,8.33
2018-11-14T06:45:29.848Z,8.41
2018-11-14T06:46:10.446Z,8.37
2018-11-14T06:46:51.220Z,8.41
2018-11-14T06:47:31.801Z,8.37
2018-11-14T06:48:12.400Z,8.31
2018-11-14T06:48:53.025Z,8.38
2018-11-14T06:49:33.616Z,8.31
2018-11-14T06:50:14.161Z,8.38
2018-11-14T06:50:54.764Z,8.38
2018-11-14T06:51:35.468Z,8.36
2018-11-14T06:52:16.482Z,8.33
2018-11-14T06:52:57.519Z,8.28
2018-11-14T06:53:38.561Z,8.27
2018-11-14T06:54:19.593Z,8.23
2018-11-14T06:55:00.495Z,8.24
2018-11-14T06:55:41.536Z,8.19
2018-11-14T06:56:22.381Z,8.24
2018-11-14T06:57:03.185Z,8.16
2018-11-14T06:57:43.906Z,8.13
2018-11-14T06:58:24.695Z,8.15
2018-11-14T06:59:05.689Z,8.18
2018-11-14T06:59:46.377Z,8.12
2018-11-14T07:00:27.162Z,8.15
2018-11-14T07:01:07.945Z,8.12
2018-11-14T07:01:48.639Z,8.15
2018-11-14T07:02:29.396Z,8.19
2018-11-14T07:03:10.206Z,8.19
2018-11-14T07:03:50.919Z,8.23
2018-11-14T07:04:31.661Z,8.19
2018-11-14T07:05:12.478Z,8.2
2018-11-14T07:05:53.069Z,8.19
2018-11-14T07:06:33.692Z,8.18
2018-11-14T07:07:14.572Z,8.16
2018-11-14T07:07:55.385Z,8.12
2018-11-14T07:08:35.966Z,8.13
2018-11-14T07:09:16.624Z,8.16
2018-11-14T07:09:57.222Z,8.15
2018-11-14T07:10:37.775Z,8.15
2018-11-14T07:11:18.351Z,8.18
2018-11-14T07:11:58.910Z,8.08
2018-11-14T07:12:39.469Z,8.05
2018-11-14T07:13:20.027Z,8.01
2018-11-14T07:14:00.571Z,8.05
2018-11-14T07:14:41.501Z,8.05
2018-11-14T07:15:22.081Z,8.05
2018-11-14T07:16:02.646Z,8
2018-11-14T07:16:43.209Z,8.03
2018-11-14T07:17:23.870Z,8.15
2018-11-14T07:18:05.011Z,8.16
2018-11-14T07:18:45.871Z,8.13
2018-11-14T07:19:26.473Z,8.15
2018-11-14T07:20:07.030Z,8.18
2018-11-14T07:20:47.597Z,8.24
2018-11-14T07:21:28.145Z,8.23
2018-11-14T07:22:08.766Z,8.2
2018-11-14T07:22:49.385Z,8.24
2018-11-14T07:23:29.948Z,8.3
2018-11-14T07:24:10.505Z,8.31
2018-11-14T07:24:51.061Z,8.38
2018-11-14T07:25:31.623Z,8.3
2018-11-14T07:26:12.196Z,8.28
2018-11-14T07:26:52.760Z,8.37
2018-11-14T07:27:33.354Z,8.38
2018-11-14T07:28:13.923Z,8.42
2018-11-14T07:28:54.482Z,8.46
2018-11-14T07:29:35.044Z,8.53
2018-11-14T07:30:15.972Z,8.46
2018-11-14T07:30:56.530Z,8.55
2018-11-14T07:31:37.126Z,8.51
2018-11-14T07:32:17.765Z,8.46
2018-11-14T07:32:58.271Z,8.48
2018-11-14T07:33:38.851Z,8.63
2018-11-14T07:34:19.435Z,8.63
2018-11-14T07:35:00.153Z,8.6
2018-11-14T07:35:40.705Z,8.64
2018-11-14T07:36:21.268Z,8.58
2018-11-14T07:38:19.127Z,8.63
2018-11-14T07:38:59.677Z,8.71
2018-11-14T07:39:40.236Z,8.69
2018-11-14T07:40:20.836Z,8.64
2018-11-14T07:41:01.388Z,8.66
2018-11-14T07:41:41.960Z,8.74
2018-11-14T07:42:22.503Z,8.74
2018-11-14T07:43:03.066Z,8.76
2018-11-14T07:43:43.734Z,8.76
2018-11-14T07:44:24.175Z,8.79
2018-11-14T07:45:04.841Z,8.79
2018-11-14T07:45:45.469Z,8.82
2018-11-14T07:46:26.093Z,8.87
2018-11-14T07:47:06.779Z,8.85
2018-11-14T07:47:47.757Z,8.92
2018-11-14T07:48:28.368Z,8.94
2018-11-14T07:49:09.033Z,8.89
2018-11-14T07:49:49.556Z,8.88
2018-11-14T07:50:30.092Z,8.94
2018-11-14T07:51:10.647Z,8.91
2018-11-14T07:51:51.205Z,8.99
2018-11-14T07:52:31.769Z,8.97
2018-11-14T07:53:12.337Z,8.92
2018-11-14T07:53:52.886Z,8.94
2018-11-14T07:54:33.507Z,9.08
2018-11-14T07:55:14.072Z,8.95
2018-11-14T07:55:54.752Z,9.02
2018-11-14T07:56:35.298Z,9.02
2018-11-14T07:57:16.046Z,9.02
2018-11-14T07:57:56.487Z,8.99
2018-11-14T07:58:37.189Z,9.04
2018-11-14T07:59:17.749Z,9.1
2018-11-14T07:59:58.294Z,9.18
2018-11-14T08:00:39.025Z,9.1
2018-11-14T08:01:19.577Z,9.06
2018-11-14T08:02:00.208Z,9.1
2018-11-14T08:02:40.778Z,9.08
2018-11-14T08:03:21.312Z,9.21
2018-11-14T08:04:01.854Z,9.14
2018-11-14T08:04:42.456Z,9.16
2018-11-14T08:05:23.004Z,9.14
2018-11-14T08:06:03.569Z,9.16
2018-11-14T08:06:44.153Z,9.18
2018-11-14T08:07:24.737Z,9.14
2018-11-14T08:08:05.287Z,9.25
2018-11-14T08:08:45.844Z,9.22
2018-11-14T08:09:26.408Z,9.23
2018-11-14T08:10:07.052Z,9.25
2018-11-14T08:10:47.898Z,9.22
2018-11-14T08:11:28.627Z,9.31
2018-11-14T08:12:09.214Z,9.29
2018-11-14T08:12:49.769Z,9.31
2018-11-14T08:13:30.343Z,9.39
2018-11-14T08:14:10.965Z,9.43
2018-11-14T08:14:51.694Z,9.5
2018-11-14T08:15:32.255Z,9.59
2018-11-14T08:16:12.812Z,9.69
2018-11-14T08:16:53.370Z,9.79
2018-11-14T08:17:33.953Z,9.97
2018-11-14T08:18:14.551Z,10.09
2018-11-14T08:18:55.140Z,10.23
2018-11-14T08:19:35.651Z,10.33
2018-11-14T08:20:16.217Z,10.44
2018-11-14T08:20:56.803Z,10.64
2018-11-14T08:21:37.410Z,10.75
2018-11-14T08:22:17.976Z,10.79
2018-11-14T08:22:58.564Z,10.87
2018-11-14T08:23:39.259Z,10.87
2018-11-14T08:24:19.824Z,11.07
2018-11-14T08:25:00.753Z,11.12
2018-11-14T08:25:41.247Z,11.23
2018-11-14T08:26:21.808Z,11.32
2018-11-14T08:27:02.397Z,11.37
2018-11-14T08:27:42.949Z,11.45
2018-11-14T08:28:23.518Z,11.62
2018-11-14T08:29:04.087Z,11.57
2018-11-14T08:29:44.637Z,11.68
2018-11-14T08:30:25.209Z,11.66
2018-11-14T08:31:05.948Z,11.63
2018-11-14T08:31:46.657Z,11.68
2018-11-14T08:32:37.075Z,11.72
2018-11-14T08:33:17.931Z,11.77
2018-11-14T08:33:58.710Z,11.72
2018-11-14T08:34:39.675Z,11.83
2018-11-14T08:35:20.419Z,11.81
2018-11-14T08:36:01.789Z,11.94
2018-11-14T08:36:42.406Z,11.94
2018-11-14T08:37:24.789Z,11.87
2018-11-14T08:38:05.854Z,11.86
2018-11-14T08:38:46.524Z,11.78
2018-11-14T08:39:27.865Z,11.81
2018-11-14T08:40:08.476Z,11.78
2018-11-14T08:40:49.117Z,11.78
2018-11-14T08:41:30.151Z,11.81
2018-11-14T08:42:10.870Z,11.91
2018-11-14T08:42:51.432Z,12.06
2018-11-14T08:43:32.862Z,12.1
2018-11-14T08:44:14.143Z,12.32
2018-11-14T08:44:54.718Z,12.43
2018-11-14T08:45:35.842Z,12.49
2018-11-14T08:46:16.729Z,12.53
2018-11-14T08:46:57.853Z,12.67
2018-11-14T08:47:38.445Z,12.73
2018-11-14T08:48:19.632Z,12.87
2018-11-14T08:49:00.579Z,12.93
2018-11-14T08:49:41.162Z,13.05
2018-11-14T08:50:21.961Z,13.12
2018-11-14T08:51:02.325Z,13.2
2018-11-14T08:51:42.897Z,13.23
2018-11-14T08:52:23.455Z,13.25
2018-11-14T08:53:04.124Z,13.11
2018-11-14T08:53:44.972Z,13
2018-11-14T08:54:26.358Z,12.78
2018-11-14T08:55:06.936Z,12.82
2018-11-14T08:55:47.494Z,12.72
2018-11-14T08:56:28.101Z,12.75
2018-11-14T08:57:08.643Z,12.86
2018-11-14T08:57:49.301Z,12.86
2018-11-14T08:58:30.561Z,13
2018-11-14T08:59:11.524Z,13.04
2018-11-14T08:59:52.215Z,13.04
2018-11-14T09:00:33.514Z,13.09
2018-11-14T09:01:14.096Z,13.2
2018-11-14T09:01:54.678Z,13.35